Terminal Aerodrome Forecast
Issued by NWS North Platte, NE

Home | Current Version | Previous Version | Graphics & Text | Print | Product List | Glossary On
Versions: 1 2 3 4 5 6 7 8 9 10 11 12 13 14 15 16 17
000
FTUS43 KLBF 231126
TAFVTN
TAF
KVTN 231126Z 2312/2412 25006KT P6SM SKC
     FM232000 25010KT P6SM SCT250
     FM240400 22007KT P6SM BKN250
     FM241000 27012G20KT P6SM FEW250=

USA.gov is the U.S. government's official web portal to all federal, state and local government web resources and services.